createdAt,value
2023-04-02T00:01:22.918Z,97440.72
2023-04-02T00:04:22.307Z,97449.75
2023-04-02T00:06:57.029Z,97445.84
2023-04-02T00:09:38.407Z,97452.66
2023-04-02T00:12:22.907Z,97451.00
2023-04-02T00:14:58.270Z,97457.78
2023-04-02T00:17:28.903Z,97455.31
2023-04-02T00:20:04.964Z,97459.78
2023-04-02T00:22:35.868Z,97454.09
2023-04-02T00:25:19.692Z,97458.13
2023-04-02T00:27:52.851Z,97462.44
2023-04-02T00:30:23.558Z,97460.72
2023-04-02T00:32:55.364Z,97472.22
2023-04-02T00:35:31.059Z,97475.47
2023-04-02T00:38:02.266Z,97467.09
2023-04-02T00:40:35.085Z,97467.09
2023-04-02T00:43:16.963Z,97475.78
2023-04-02T00:45:54.872Z,97470.63
2023-04-02T00:48:45.540Z,97474.22
2023-04-02T00:51:25.462Z,97478.53
2023-04-02T00:53:59.749Z,97481.09
2023-04-02T00:56:35.134Z,97471.81
2023-04-02T00:59:15.618Z,97471.97
2023-04-02T01:01:46.239Z,97476.13
2023-04-02T01:04:36.627Z,97474.53
2023-04-02T01:07:12.361Z,97489.13
2023-04-02T01:10:17.296Z,97475.53
2023-04-02T01:13:01.129Z,97490.03
2023-04-02T01:15:54.878Z,97491.59
2023-04-02T01:18:37.815Z,97494.94
2023-04-02T01:21:34.670Z,97491.19
2023-04-02T01:24:07.890Z,97495.66
2023-04-02T01:26:57.899Z,97491.38
2023-04-02T01:29:34.529Z,97490.53
2023-04-02T01:32:08.927Z,97495.75
2023-04-02T01:34:39.898Z,97490.38
2023-04-02T01:37:27.961Z,97490.38
2023-04-02T01:40:16.439Z,97488.56
2023-04-02T01:42:56.687Z,97496.44
2023-04-02T01:45:30.448Z,97503.22
2023-04-02T01:48:02.338Z,97504.72
2023-04-02T01:50:37.277Z,97495.03
2023-04-02T01:53:13.210Z,97509.59
2023-04-02T01:55:48.963Z,97504.44
2023-04-02T01:58:27.523Z,97518.97
2023-04-02T02:01:06.227Z,97511.19
2023-04-02T02:03:38.475Z,97517.31
2023-04-02T02:06:10.306Z,97508.59
2023-04-02T02:08:44.444Z,97506.03
2023-04-02T02:11:19.345Z,97514.81
2023-04-02T02:13:50.841Z,97518.06
2023-04-02T02:16:24.811Z,97517.06
2023-04-02T02:18:58.708Z,97518.88
2023-04-02T02:21:41.855Z,97522.53
2023-04-02T02:24:22.802Z,97520.63
2023-04-02T02:27:04.654Z,97529.75
2023-04-02T02:29:41.160Z,97529.94
2023-04-02T02:32:15.993Z,97534.41
2023-04-02T02:34:52.737Z,97535.06
2023-04-02T02:37:30.592Z,97541.09
2023-04-02T02:40:05.550Z,97543.50
2023-04-02T02:42:38.907Z,97538.38
2023-04-02T02:45:18.236Z,97539.19
2023-04-02T02:47:52.907Z,97548.81
2023-04-02T02:50:30.212Z,97542.59
2023-04-02T02:53:03.341Z,97552.03
2023-04-02T02:55:39.367Z,97551.22
2023-04-02T02:58:33.923Z,97556.28
2023-04-02T03:01:23.789Z,97553.13
2023-04-02T03:03:59.771Z,97546.16
2023-04-02T03:06:30.540Z,97558.34
2023-04-02T03:09:13.655Z,97556.34
2023-04-02T03:11:52.407Z,97553.72
2023-04-02T03:14:33.412Z,97561.50
2023-04-02T03:17:13.904Z,97558.09
2023-04-02T03:19:52.463Z,97560.66
2023-04-02T03:22:30.088Z,97567.56
2023-04-02T03:25:07.225Z,97568.53
2023-04-02T03:27:43.038Z,97571.88
2023-04-02T03:30:33.678Z,97579.34
2023-04-02T03:33:09.845Z,97580.41
2023-04-02T03:35:46.244Z,97576.19
2023-04-02T03:38:23.627Z,97589.75
2023-04-02T03:41:06.073Z,97588.94
2023-04-02T03:43:43.978Z,97589.91
2023-04-02T03:46:27.303Z,97587.53
2023-04-02T03:49:04.956Z,97595.31
2023-04-02T03:51:44.939Z,97592.09
2023-04-02T03:54:19.252Z,97607.03
2023-04-02T03:56:50.725Z,97606.84
2023-04-02T03:59:39.259Z,97603.84
2023-04-02T04:02:25.745Z,97605.03
2023-04-02T04:04:58.743Z,97610.47
2023-04-02T04:07:38.568Z,97607.31
2023-04-02T04:10:11.633Z,97604.59
2023-04-02T04:12:47.012Z,97609.66
2023-04-02T04:15:25.280Z,97608.09
2023-04-02T04:18:02.591Z,97620.84
2023-04-02T04:20:46.289Z,97627.63
2023-04-02T04:23:34.213Z,97627.56
2023-04-02T04:26:20.046Z,97628.81
2023-04-02T04:29:05.856Z,97635.44
2023-04-02T04:31:47.262Z,97636.16
2023-04-02T04:34:25.092Z,97648.44
2023-04-02T04:37:01.869Z,97637.50
2023-04-02T04:39:45.573Z,97643.53
2023-04-02T04:42:23.708Z,97651.16
2023-04-02T04:45:01.804Z,97659.78
2023-04-02T04:47:38.395Z,97665.84
2023-04-02T04:50:16.686Z,97668.41
2023-04-02T04:52:47.660Z,97664.19
2023-04-02T04:55:38.701Z,97665.00
2023-04-02T04:58:21.165Z,97674.63
2023-04-02T05:01:02.223Z,97671.94
2023-04-02T05:03:38.918Z,97677.34
2023-04-02T05:06:28.967Z,97674.63
2023-04-02T05:09:03.351Z,97678.00
2023-04-02T05:11:42.955Z,97685.03
2023-04-02T05:14:33.052Z,97684.88
2023-04-02T05:17:10.141Z,97678.53
2023-04-02T05:19:46.262Z,97690.53
2023-04-02T05:22:27.826Z,97693.94
2023-04-02T05:25:12.620Z,97699.09
2023-04-02T05:27:52.779Z,97701.88
2023-04-02T05:30:52.990Z,97702.69
2023-04-02T05:33:27.677Z,97702.84
2023-04-02T05:36:04.147Z,97702.84
2023-04-02T05:38:41.797Z,97711.75
2023-04-02T05:41:20.309Z,97714.34
2023-04-02T05:44:00.487Z,97715.94
2023-04-02T05:46:38.089Z,97706.47
2023-04-02T05:49:18.658Z,97717.66
2023-04-02T05:51:55.874Z,97720.25
2023-04-02T05:54:33.762Z,97720.25
2023-04-02T05:57:08.891Z,97729.53
2023-04-02T05:59:46.849Z,97736.34
2023-04-02T06:02:25.822Z,97738.97
2023-04-02T06:05:02.161Z,97738.09
2023-04-02T06:07:45.210Z,97747.44
2023-04-02T06:10:24.733Z,97750.94
2023-04-02T06:13:03.373Z,97750.94
2023-04-02T06:15:41.203Z,97754.25
2023-04-02T06:18:21.340Z,97758.31
2023-04-02T06:20:53.305Z,97765.19
2023-04-02T06:23:31.320Z,97762.72
2023-04-02T06:26:09.224Z,97760.88
2023-04-02T06:28:48.469Z,97771.16
2023-04-02T06:31:34.274Z,97773.69
2023-04-02T06:34:08.394Z,97777.91
2023-04-02T06:36:38.898Z,97775.88
2023-04-02T06:39:20.686Z,97788.63
2023-04-02T06:42:01.217Z,97781.50
2023-04-02T06:44:52.661Z,97796.94
2023-04-02T06:47:47.547Z,97790.81
2023-04-02T06:50:31.487Z,97796.63
2023-04-02T06:53:09.854Z,97803.38
2023-04-02T06:55:48.120Z,97804.94
2023-04-02T06:58:24.598Z,97811.69
2023-04-02T07:00:56.599Z,97818.31
2023-04-02T07:03:41.232Z,97827.78
2023-04-02T07:06:21.026Z,97829.88
2023-04-02T07:08:54.079Z,97831.03
2023-04-02T07:11:27.371Z,97830.28
2023-04-02T07:14:01.101Z,97837.84
2023-04-02T07:16:34.703Z,97836.19
2023-04-02T07:19:07.942Z,97842.69
2023-04-02T07:21:41.136Z,97842.34
2023-04-02T07:24:11.694Z,97847.38
2023-04-02T07:26:42.180Z,97846.81
2023-04-02T07:29:17.611Z,97852.66
2023-04-02T07:31:48.354Z,97860.31
2023-04-02T07:34:21.615Z,97864.16
2023-04-02T07:36:52.736Z,97871.75
2023-04-02T07:39:23.036Z,97868.41
2023-04-02T07:41:58.245Z,97876.13
2023-04-02T07:44:28.770Z,97879.53
2023-04-02T07:46:59.459Z,97879.47
2023-04-02T07:49:32.653Z,97889.75
2023-04-02T07:52:03.072Z,97890.44
2023-04-02T07:54:36.401Z,97886.13
2023-04-02T07:57:07.181Z,97889.28
2023-04-02T07:59:37.580Z,97904.56
2023-04-02T08:02:08.046Z,97905.41
2023-04-02T08:04:41.271Z,97913.63
2023-04-02T08:07:11.801Z,97916.03
2023-04-02T08:09:42.243Z,97922.88
2023-04-02T08:12:15.239Z,97916.81
2023-04-02T08:14:45.672Z,97917.38
2023-04-02T08:17:16.218Z,97922.47
2023-04-02T08:19:54.979Z,97925.72
2023-04-02T08:22:27.795Z,97927.38
2023-04-02T08:24:59.214Z,97931.38
2023-04-02T08:27:30.109Z,97932.97
2023-04-02T08:30:00.965Z,97940.38
2023-04-02T08:32:31.818Z,97938.25
2023-04-02T08:35:05.025Z,97942.47
2023-04-02T08:37:35.418Z,97951.28
2023-04-02T08:40:07.458Z,97959.69
2023-04-02T08:42:46.334Z,97964.72
2023-04-02T08:45:25.575Z,97957.84
2023-04-02T08:48:00.228Z,97959.19
2023-04-02T08:50:37.598Z,97964.50
2023-04-02T08:53:13.039Z,97964.44
2023-04-02T08:55:49.343Z,97971.09
2023-04-02T08:58:35.403Z,97970.69
2023-04-02T09:01:09.002Z,97977.41
2023-04-02T09:03:43.800Z,97978.00
2023-04-02T09:06:20.592Z,97980.19
2023-04-02T09:08:54.308Z,97985.19
2023-04-02T09:11:29.022Z,97988.66
2023-04-02T09:14:02.810Z,97991.31
2023-04-02T09:16:47.029Z,97996.13
2023-04-02T09:19:24.629Z,97990.56
2023-04-02T09:22:09.341Z,98001.50
2023-04-02T09:24:40.525Z,98001.00
2023-04-02T09:27:22.007Z,98001.00
2023-04-02T09:29:56.890Z,98002.41
2023-04-02T09:32:43.753Z,98011.25
2023-04-02T09:35:26.266Z,98011.28
2023-04-02T09:38:23.167Z,98017.06
2023-04-02T09:41:03.905Z,98018.53
2023-04-02T09:43:36.406Z,98027.78
2023-04-02T09:46:09.706Z,98027.25
2023-04-02T09:48:44.437Z,98027.63
2023-04-02T09:51:20.378Z,98034.00
2023-04-02T09:53:56.028Z,98029.84
2023-04-02T09:56:27.939Z,98042.75
2023-04-02T09:59:09.762Z,98041.34
2023-04-02T10:01:42.824Z,98041.59
2023-04-02T10:04:38.930Z,98052.22
2023-04-02T10:07:10.058Z,98045.13
2023-04-02T10:09:43.194Z,98045.53
2023-04-02T10:12:17.287Z,98050.09
2023-04-02T10:14:52.774Z,98052.13
2023-04-02T10:17:29.295Z,98053.88
2023-04-02T10:20:06.453Z,98059.66
2023-04-02T10:22:37.332Z,98057.50
2023-04-02T10:25:17.271Z,98054.09
2023-04-02T10:27:54.901Z,98059.03
2023-04-02T10:30:30.843Z,98072.34
2023-04-02T10:33:06.368Z,98059.78
2023-04-02T10:35:46.034Z,98060.81
2023-04-02T10:38:29.392Z,98069.47
2023-04-02T10:41:07.065Z,98068.50
2023-04-02T10:44:18.979Z,98072.63
2023-04-02T10:47:03.935Z,98073.56
2023-04-02T10:49:44.179Z,98080.22
2023-04-02T10:52:23.234Z,98081.31
2023-04-02T10:54:56.284Z,98084.28
2023-04-02T10:57:38.569Z,98092.97
2023-04-02T11:00:22.178Z,98096.19
2023-04-02T11:02:59.025Z,98094.16
2023-04-02T11:05:40.569Z,98099.88
2023-04-02T11:08:19.963Z,98097.09
2023-04-02T11:10:55.755Z,98107.28
2023-04-02T11:13:34.545Z,98109.69
2023-04-02T11:16:05.483Z,98108.94
2023-04-02T11:18:38.944Z,98108.38
2023-04-02T11:21:10.960Z,98105.78
2023-04-02T11:24:01.932Z,98110.44
2023-04-02T11:26:41.463Z,98112.16
2023-04-02T11:29:30.186Z,98116.16
2023-04-02T11:32:34.054Z,98121.88
2023-04-02T11:35:40.665Z,98127.50
2023-04-02T11:38:55.018Z,98120.97
2023-04-02T11:42:04.684Z,98131.97
2023-04-02T11:44:37.761Z,98133.38
2023-04-02T11:47:25.221Z,98135.56
2023-04-02T11:50:31.725Z,98125.22
2023-04-02T11:53:06.936Z,98132.03
2023-04-02T11:55:38.424Z,98130.38
2023-04-02T11:58:36.013Z,98128.09
2023-04-02T12:01:52.782Z,98141.25
2023-04-02T12:05:04.498Z,98139.59
2023-04-02T12:08:05.877Z,98140.97
2023-04-02T12:10:54.295Z,98142.19
2023-04-02T12:13:58.746Z,98144.03
2023-04-02T12:16:33.433Z,98144.91
2023-04-02T12:19:04.463Z,98147.66
2023-04-02T12:21:35.393Z,98148.38
2023-04-02T12:24:07.329Z,98153.78
2023-04-02T12:26:42.433Z,98152.75
2023-04-02T12:29:39.287Z,98154.22
2023-04-02T12:32:25.935Z,98163.00
2023-04-02T12:35:01.681Z,98155.66
2023-04-02T12:37:32.867Z,98161.00
2023-04-02T12:40:07.396Z,98166.91
2023-04-02T12:42:39.972Z,98171.03
2023-04-02T12:45:27.941Z,98167.50
2023-04-02T12:48:01.214Z,98180.56
2023-04-02T12:50:32.432Z,98177.09
2023-04-02T12:53:02.925Z,98181.75
2023-04-02T12:55:33.758Z,98187.41
2023-04-02T12:58:04.228Z,98181.41
2023-04-02T13:00:39.846Z,98186.94
2023-04-02T13:03:23.133Z,98187.78
2023-04-02T13:05:57.608Z,98191.75
2023-04-02T13:08:33.298Z,98194.06
2023-04-02T13:11:06.200Z,98192.13
2023-04-02T13:13:39.573Z,98191.09
2023-04-02T13:16:31.080Z,98198.16
2023-04-02T13:19:32.049Z,98199.44
2023-04-02T13:22:04.383Z,98195.28
2023-04-02T13:24:36.752Z,98210.44
2023-04-02T13:27:07.760Z,98210.78
2023-04-02T13:29:39.746Z,98205.34
2023-04-02T13:32:15.788Z,98205.81
2023-04-02T13:34:46.123Z,98208.75
2023-04-02T13:37:16.796Z,98217.53
2023-04-02T13:39:47.646Z,98218.31
2023-04-02T13:42:18.097Z,98216.34
2023-04-02T13:44:49.388Z,98214.03
2023-04-02T13:47:22.411Z,98220.50
2023-04-02T13:49:53.072Z,98232.84
2023-04-02T13:52:23.681Z,98228.34
2023-04-02T13:54:58.625Z,98226.13
2023-04-02T13:57:29.040Z,98233.13
2023-04-02T13:59:59.580Z,98234.50
2023-04-02T14:02:33.489Z,98240.50
2023-04-02T14:05:17.033Z,98245.09
2023-04-02T14:08:02.155Z,98249.69
2023-04-02T14:10:50.676Z,98249.03
2023-04-02T14:13:48.025Z,98256.53
2023-04-02T14:16:43.238Z,98263.09
2023-04-02T14:19:36.954Z,98260.59
2023-04-02T14:22:21.091Z,98267.78
2023-04-02T14:24:59.960Z,98277.91
2023-04-02T14:27:40.418Z,98278.59
2023-04-02T14:30:20.990Z,98287.28
2023-04-02T14:33:01.582Z,98290.63
2023-04-02T14:35:40.488Z,98295.13
2023-04-02T14:38:20.327Z,98288.19
2023-04-02T14:40:53.102Z,98294.09
2023-04-02T14:43:27.797Z,98295.13
2023-04-02T14:46:04.654Z,98296.28
2023-04-02T14:48:51.305Z,98296.53
2023-04-02T14:51:33.762Z,98299.25
2023-04-02T14:54:12.573Z,98300.44
2023-04-02T14:56:49.006Z,98303.03
2023-04-02T14:59:32.684Z,98310.09
2023-04-02T15:02:11.050Z,98307.91
2023-04-02T15:04:47.653Z,98312.16
2023-04-02T15:07:26.190Z,98321.75
2023-04-02T15:10:06.160Z,98318.91
2023-04-02T15:12:40.067Z,98322.56
2023-04-02T15:15:33.043Z,98320.19
2023-04-02T15:18:15.302Z,98328.50
2023-04-02T15:20:58.281Z,98331.00
2023-04-02T15:23:49.105Z,98339.13
2023-04-02T15:26:26.521Z,98344.28
2023-04-02T15:29:09.259Z,98349.16
2023-04-02T15:31:49.472Z,98349.44
2023-04-02T15:34:27.104Z,98351.72
2023-04-02T15:37:23.260Z,98354.31
2023-04-02T15:40:26.746Z,98354.47
2023-04-02T15:43:08.592Z,98367.66
2023-04-02T15:45:54.677Z,98367.97
2023-04-02T15:49:01.758Z,98370.09
2023-04-02T15:52:00.629Z,98371.97
2023-04-02T15:54:51.612Z,98377.97
2023-04-02T15:57:42.016Z,98391.84
2023-04-02T16:00:26.755Z,98391.25
2023-04-02T16:03:24.058Z,98400.47
2023-04-02T16:06:17.237Z,98404.03
2023-04-02T16:09:05.296Z,98417.22
2023-04-02T16:11:36.838Z,98415.69
2023-04-02T16:14:31.032Z,98411.81
2023-04-02T16:17:17.472Z,98419.00
2023-04-02T16:20:00.364Z,98422.50
2023-04-02T16:22:33.940Z,98425.19
2023-04-02T16:25:13.746Z,98429.59
2023-04-02T16:27:50.254Z,98430.66
2023-04-02T16:30:51.827Z,98437.13
2023-04-02T16:33:39.954Z,98443.19
2023-04-02T16:36:25.713Z,98437.47
2023-04-02T16:39:04.161Z,98448.75
2023-04-02T16:41:49.306Z,98450.69
2023-04-02T16:44:31.999Z,98456.59
2023-04-02T16:47:26.802Z,98460.63
2023-04-02T16:50:04.958Z,98470.53
2023-04-02T16:52:49.436Z,98470.69
2023-04-02T16:55:38.575Z,98481.16
2023-04-02T16:58:27.879Z,98473.69
2023-04-02T17:01:02.702Z,98488.88
2023-04-02T17:04:13.266Z,98490.59
2023-04-02T17:06:46.559Z,98489.34
2023-04-02T17:09:23.823Z,98499.06
2023-04-02T17:11:59.094Z,98502.91
2023-04-02T17:14:36.557Z,98507.88
2023-04-02T17:17:08.543Z,98520.91
2023-04-02T17:19:44.278Z,98517.47
2023-04-02T17:22:21.110Z,98526.25
2023-04-02T17:24:56.660Z,98523.75
2023-04-02T17:27:32.303Z,98536.88
2023-04-02T17:30:08.359Z,98541.38
2023-04-02T17:32:39.396Z,98557.84
2023-04-02T17:35:25.929Z,98559.09
2023-04-02T17:38:04.956Z,98565.06
2023-04-02T17:40:43.161Z,98572.09
2023-04-02T17:43:21.932Z,98584.22
2023-04-02T17:45:56.230Z,98585.88
2023-04-02T17:48:37.544Z,98597.91
2023-04-02T17:51:19.438Z,98591.84
2023-04-02T17:54:04.608Z,98600.47
2023-04-02T17:56:56.067Z,98612.44
2023-04-02T17:59:54.719Z,98604.81
2023-04-02T18:02:42.110Z,98613.56
2023-04-02T18:05:25.272Z,98619.53
2023-04-02T18:08:12.673Z,98624.88
2023-04-02T18:10:52.055Z,98630.19
2023-04-02T18:13:36.461Z,98633.47
2023-04-02T18:16:28.934Z,98644.81
2023-04-02T18:19:12.096Z,98654.28
2023-04-02T18:21:52.153Z,98652.09
2023-04-02T18:24:50.967Z,98665.50
2023-04-02T18:27:38.509Z,98669.13
2023-04-02T18:30:21.913Z,98684.56
2023-04-02T18:33:24.385Z,98686.56
2023-04-02T18:36:02.667Z,98698.41
2023-04-02T18:38:43.901Z,98707.03
2023-04-02T18:41:54.012Z,98704.50
2023-04-02T18:44:43.908Z,98712.53
2023-04-02T18:47:22.803Z,98720.44
2023-04-02T18:50:05.724Z,98735.13
2023-04-02T18:52:37.063Z,98733.53
2023-04-02T18:55:15.708Z,98731.28
2023-04-02T18:57:52.794Z,98744.31
2023-04-02T19:00:32.082Z,98752.25
2023-04-02T19:03:07.281Z,98763.50
2023-04-02T19:05:45.826Z,98761.91
2023-04-02T19:08:22.636Z,98775.69
2023-04-02T19:11:01.880Z,98770.09
2023-04-02T19:13:35.352Z,98777.13
2023-04-02T19:16:28.760Z,98785.88
2023-04-02T19:19:12.357Z,98795.06
2023-04-02T19:21:57.405Z,98798.56
2023-04-02T19:24:46.180Z,98803.09
2023-04-02T19:27:25.913Z,98798.88
2023-04-02T19:30:30.069Z,98811.94
2023-04-02T19:33:09.997Z,98806.03
2023-04-02T19:35:50.269Z,98818.94
2023-04-02T19:38:39.885Z,98825.13
2023-04-02T19:41:16.667Z,98826.84
2023-04-02T19:43:47.150Z,98838.63
2023-04-02T19:46:20.409Z,98844.47
2023-04-02T19:49:00.057Z,98845.25
2023-04-02T19:51:30.601Z,98846.13
2023-04-02T19:54:01.103Z,98858.31
2023-04-02T19:56:42.646Z,98854.13
2023-04-02T19:59:23.989Z,98861.06
2023-04-02T20:02:03.003Z,98875.00
2023-04-02T20:04:33.620Z,98871.22
2023-04-02T20:07:19.750Z,98878.25
2023-04-02T20:09:56.944Z,98884.28
2023-04-02T20:12:27.576Z,98885.59
2023-04-02T20:14:58.054Z,98893.38
2023-04-02T20:17:31.194Z,98897.69
2023-04-02T20:20:01.776Z,98899.66
2023-04-02T20:22:32.270Z,98896.13
2023-04-02T20:25:03.785Z,98902.13
2023-04-02T20:27:37.031Z,98900.34
2023-04-02T20:30:08.958Z,98903.22
2023-04-02T20:32:42.043Z,98909.34
2023-04-02T20:35:12.900Z,98901.59
2023-04-02T20:37:43.412Z,98909.28
2023-04-02T20:40:15.259Z,98913.56
2023-04-02T20:42:45.828Z,98921.56
2023-04-02T20:45:16.813Z,98918.94
2023-04-02T20:47:50.010Z,98928.88
2023-04-02T20:50:21.130Z,98916.94
2023-04-02T20:52:51.756Z,98928.09
2023-04-02T20:55:22.415Z,98927.91
2023-04-02T20:57:56.039Z,98927.09
2023-04-02T21:00:26.590Z,98932.22
2023-04-02T21:03:00.423Z,98943.41
2023-04-02T21:05:30.994Z,98941.03
2023-04-02T21:08:01.997Z,98945.56
2023-04-02T21:10:32.911Z,98944.09
2023-04-02T21:13:03.425Z,98946.22
2023-04-02T21:15:34.193Z,98956.34
2023-04-02T21:18:07.800Z,98947.66
2023-04-02T21:20:38.472Z,98952.69
2023-04-02T21:23:08.958Z,98948.47
2023-04-02T21:25:39.494Z,98962.94
2023-04-02T21:28:10.235Z,98961.47
2023-04-02T21:30:40.749Z,98962.28
2023-04-02T21:33:13.848Z,98969.94
2023-04-02T21:35:44.351Z,98960.59
2023-04-02T21:38:14.909Z,98958.91
2023-04-02T21:40:45.334Z,98958.09
2023-04-02T21:43:16.375Z,98954.84
2023-04-02T21:45:46.878Z,98959.97
2023-04-02T21:48:20.066Z,98959.97
2023-04-02T21:50:50.497Z,98962.56
2023-04-02T21:53:20.921Z,98972.97
2023-04-02T21:55:51.421Z,98973.91
2023-04-02T21:58:21.977Z,98979.19
2023-04-02T22:00:52.403Z,98971.53
2023-04-02T22:03:31.637Z,98976.78
2023-04-02T22:06:08.535Z,98982.78
2023-04-02T22:08:40.880Z,98982.00
2023-04-02T22:11:14.015Z,98979.38
2023-04-02T22:13:46.649Z,98982.94
2023-04-02T22:16:20.803Z,98994.22
2023-04-02T22:18:56.031Z,98996.66
2023-04-02T22:21:27.055Z,98995.81
2023-04-02T22:23:57.579Z,98998.59
2023-04-02T22:26:28.488Z,98997.63
2023-04-02T22:28:58.891Z,99006.09
2023-04-02T22:31:33.600Z,99002.06
2023-04-02T22:34:08.609Z,99006.31
2023-04-02T22:36:38.813Z,99013.97
2023-04-02T22:39:12.368Z,99012.28
2023-04-02T22:41:43.555Z,99002.81
2023-04-02T22:44:19.443Z,99008.00
2023-04-02T22:46:49.883Z,99015.59
2023-04-02T22:49:22.847Z,99009.63
2023-04-02T22:51:53.447Z,99006.28
2023-04-02T22:54:23.772Z,99011.47
2023-04-02T22:56:54.349Z,99015.75
2023-04-02T22:59:24.872Z,99011.41
2023-04-02T23:01:55.594Z,99006.28
2023-04-02T23:04:28.677Z,99006.31
2023-04-02T23:06:59.107Z,99007.28
2023-04-02T23:09:29.678Z,98999.53
2023-04-02T23:12:00.043Z,99001.25
2023-04-02T23:14:30.687Z,98996.94
2023-04-02T23:17:01.076Z,99004.72
2023-04-02T23:19:34.187Z,98998.78
2023-04-02T23:22:04.542Z,99009.81
2023-04-02T23:24:35.270Z,99012.50
2023-04-02T23:27:06.191Z,99003.94
2023-04-02T23:29:36.560Z,99011.63
2023-04-02T23:32:07.723Z,99003.91
2023-04-02T23:34:40.792Z,99007.34
2023-04-02T23:37:11.184Z,99002.28
2023-04-02T23:39:41.911Z,98995.53
2023-04-02T23:42:12.891Z,98998.13
2023-04-02T23:44:43.292Z,99005.72
2023-04-02T23:47:13.687Z,98995.56
2023-04-02T23:49:48.150Z,98995.56
2023-04-02T23:52:18.552Z,98993.00
2023-04-02T23:54:48.917Z,98998.13
2023-04-02T23:57:19.477Z,99002.34
2023-04-02T23:59:50.048Z,99001.56
